Portada
METAR-TAF:

METAR-TAF

Aeroports :

Al-Riyad, Aràbia Saudita

latitud: 24-43N, longitud: 046-44E, altitud: 635 m

Observació

L'informe es va fer fa 26 minuts, a les 18:00 UTC
Vent 2 kt del Nord
Temperatura 31°C
Humitat 10%
Pressió 1010 hPa
Visibilitat 10 km o més
sense núvols per sota de 1500 mi sense presència de cumulonimbus.

METAR: OERY 301800Z 01002KT CAVOK 31/M04 Q1010

Hora: 21:26 (18:26 UTC)

Pronòstic

L'informe es va fer fa 7 hores i 26 minuts, a les 11:00 UTC
Pronòstic vàlid del 30 a les 12 UTC al 01 a les 18 UTC
Vent 12 kt del Oest/Nord-Oest
Visibilitat: 7000 m
Evolucionant progressivament
l' 30 a les 20 UTC al 30 a les 22 UTC
Vent 3 kt amb direcció variable

TAF: OERY 301100Z 3012/0118 30012KT 7000 NSC BECMG 3020/3022 VRB03KT

Observacions i pronòstics meteorològics de més de 4000 aeroports (METAR i TAF).

Les estacions disponibles són els punts grocs i vermells al mapa.

Posi el ratolí al punt desitjat per veure el nom de l'estació.

Feu clic per veure les observacions i els pronòstics meteorològics.

Per canviar el mapa: feu clic els botons verds amb una creu de color negre per apropar; al botó verd amb un guió per allunyar la imatge; o en les fletxes verdes per a mapes adjacents.


METAR-TAF: